createdAt,value
2019-02-18T00:02:16.084Z,8.40
2019-02-18T00:04:44.572Z,8.40
2019-02-18T00:07:14.716Z,8.40
2019-02-18T00:09:43.255Z,8.40
2019-02-18T00:12:11.779Z,8.40
2019-02-18T00:14:40.232Z,8.40
2019-02-18T00:17:08.763Z,8.40
2019-02-18T00:19:37.258Z,8.30
2019-02-18T00:22:05.730Z,8.30
2019-02-18T00:24:34.185Z,8.30
2019-02-18T00:27:02.647Z,8.30
2019-02-18T00:29:31.155Z,8.20
2019-02-18T00:31:59.619Z,8.10
2019-02-18T00:34:28.057Z,8.10
2019-02-18T00:36:56.518Z,8.10
2019-02-18T00:39:24.975Z,8.10
2019-02-18T00:41:53.497Z,8.00
2019-02-18T00:44:21.940Z,8.00
2019-02-18T00:46:50.397Z,8.10
2019-02-18T00:49:18.831Z,8.10
2019-02-18T00:51:47.380Z,8.10
2019-02-18T00:54:15.813Z,8.10
2019-02-18T00:56:44.344Z,8.10
2019-02-18T00:59:12.856Z,8.10
2019-02-18T01:01:41.319Z,8.10
2019-02-18T01:04:09.767Z,8.10
2019-02-18T01:06:38.211Z,8.10
2019-02-18T01:09:06.748Z,8.10
2019-02-18T01:11:35.198Z,8.10
2019-02-18T01:14:03.704Z,8.10
2019-02-18T01:16:32.199Z,8.00
2019-02-18T01:19:00.651Z,8.00
2019-02-18T01:21:29.083Z,8.00
2019-02-18T01:23:57.564Z,8.00
2019-02-18T01:26:26.085Z,8.10
2019-02-18T01:28:54.564Z,8.20
2019-02-18T01:31:23.008Z,8.20
2019-02-18T01:33:51.560Z,8.30
2019-02-18T01:36:20.024Z,8.30
2019-02-18T01:38:48.500Z,8.30
2019-02-18T01:41:16.934Z,8.30
2019-02-18T01:43:45.389Z,8.30
2019-02-18T01:46:13.883Z,8.30
2019-02-18T01:48:42.332Z,8.20
2019-02-18T01:51:10.778Z,8.20
2019-02-18T01:53:39.236Z,8.10
2019-02-18T01:56:07.693Z,8.00
2019-02-18T01:58:36.269Z,8.00
2019-02-18T02:01:04.878Z,8.10
2019-02-18T02:03:33.312Z,8.10
2019-02-18T02:06:01.800Z,8.00
2019-02-18T02:08:30.230Z,8.00
2019-02-18T02:10:58.687Z,8.00
2019-02-18T02:13:29.936Z,7.90
2019-02-18T02:15:59.307Z,7.90
2019-02-18T02:18:27.756Z,7.80
2019-02-18T02:20:56.207Z,7.70
2019-02-18T02:23:24.653Z,7.70
2019-02-18T02:25:53.279Z,7.70
2019-02-18T02:28:21.710Z,7.70
2019-02-18T02:30:50.214Z,7.80
2019-02-18T02:33:18.645Z,7.80
2019-02-18T02:35:47.093Z,7.80
2019-02-18T02:38:15.608Z,7.90
2019-02-18T02:40:44.038Z,7.90
2019-02-18T02:43:12.583Z,7.90
2019-02-18T02:45:41.067Z,8.00
2019-02-18T02:48:09.519Z,7.90
2019-02-18T02:50:37.965Z,7.80
2019-02-18T02:53:06.492Z,7.80
2019-02-18T02:55:34.932Z,7.70
2019-02-18T02:58:03.371Z,7.70
2019-02-18T03:00:31.820Z,7.70
2019-02-18T03:03:00.350Z,7.70
2019-02-18T03:05:28.784Z,7.60
2019-02-18T03:07:57.242Z,7.60
2019-02-18T03:10:25.674Z,7.60
2019-02-18T03:12:54.146Z,7.50
2019-02-18T03:15:22.583Z,7.40
2019-02-18T03:17:51.118Z,7.40
2019-02-18T03:20:19.550Z,7.30
2019-02-18T03:22:48.011Z,7.30
2019-02-18T03:25:19.048Z,7.40
2019-02-18T03:27:49.241Z,7.40
2019-02-18T03:30:32.809Z,7.40
2019-02-18T03:33:01.319Z,7.40
2019-02-18T03:35:29.823Z,7.30
2019-02-18T03:37:58.280Z,7.20
2019-02-18T03:40:26.716Z,7.10
2019-02-18T03:42:55.195Z,7.10
2019-02-18T03:45:23.713Z,7.10
2019-02-18T03:47:52.158Z,7.10
2019-02-18T03:50:20.633Z,7.10
2019-02-18T03:52:49.140Z,7.10
2019-02-18T03:55:17.631Z,7.10
2019-02-18T03:57:46.077Z,7.10
2019-02-18T04:00:14.607Z,7.00
2019-02-18T04:02:43.303Z,6.90
2019-02-18T04:05:11.764Z,6.90
2019-02-18T04:07:40.206Z,6.90
2019-02-18T04:10:10.583Z,6.80
2019-02-18T04:12:39.159Z,6.80
2019-02-18T04:15:10.610Z,6.80
2019-02-18T04:17:39.059Z,6.70
2019-02-18T04:20:07.825Z,6.70
2019-02-18T04:22:36.267Z,6.70
2019-02-18T04:25:06.069Z,6.70
2019-02-18T04:27:34.558Z,6.70
2019-02-18T04:30:03.308Z,6.60
2019-02-18T04:32:31.742Z,6.60
2019-02-18T04:35:00.260Z,6.60
2019-02-18T04:37:28.691Z,6.60
2019-02-18T04:39:57.152Z,6.50
2019-02-18T04:42:25.582Z,6.50
2019-02-18T04:44:54.011Z,6.50
2019-02-18T04:47:22.478Z,6.50
2019-02-18T04:49:50.910Z,6.50
2019-02-18T04:52:19.359Z,6.50
2019-02-18T04:54:47.804Z,6.50
2019-02-18T04:57:16.287Z,6.50
2019-02-18T04:59:44.715Z,6.50
2019-02-18T05:02:13.177Z,6.60
2019-02-18T05:04:41.636Z,6.60
2019-02-18T05:07:10.107Z,6.60
2019-02-18T05:09:39.968Z,6.60
2019-02-18T05:12:08.646Z,6.60
2019-02-18T05:14:37.086Z,6.60
2019-02-18T05:17:05.540Z,6.60
2019-02-18T05:19:33.975Z,6.50
2019-02-18T05:22:02.581Z,6.50
2019-02-18T05:24:31.022Z,6.40
2019-02-18T05:26:59.489Z,6.40
2019-02-18T05:29:27.939Z,6.30
2019-02-18T05:31:56.462Z,6.30
2019-02-18T05:34:24.902Z,6.30
2019-02-18T05:36:53.369Z,6.30
2019-02-18T05:39:21.815Z,6.30
2019-02-18T05:41:50.323Z,6.30
2019-02-18T05:44:18.790Z,6.30
2019-02-18T05:46:47.213Z,6.20
2019-02-18T05:49:15.671Z,6.20
2019-02-18T05:51:44.121Z,6.20
2019-02-18T05:54:12.747Z,6.10
2019-02-18T05:56:41.184Z,6.00
2019-02-18T05:59:09.668Z,6.00
2019-02-18T06:01:38.101Z,6.00
2019-02-18T06:04:06.553Z,6.00
2019-02-18T06:06:34.981Z,5.90
2019-02-18T06:09:04.383Z,6.00
2019-02-18T06:11:32.811Z,5.90
2019-02-18T06:14:01.276Z,5.90
2019-02-18T06:16:29.702Z,5.90
2019-02-18T06:18:58.147Z,5.90
2019-02-18T06:21:26.595Z,5.80
2019-02-18T06:23:55.054Z,5.80
2019-02-18T06:26:42.844Z,5.80
2019-02-18T06:29:11.291Z,5.80
2019-02-18T06:31:39.757Z,5.80
2019-02-18T06:34:08.202Z,5.70
2019-02-18T06:36:36.730Z,5.70
2019-02-18T06:39:06.608Z,5.70
2019-02-18T06:41:35.082Z,5.70
2019-02-18T06:44:03.510Z,5.60
2019-02-18T06:46:39.051Z,5.60
2019-02-18T06:49:09.132Z,5.60
2019-02-18T06:51:37.592Z,5.50
2019-02-18T06:54:06.026Z,5.50
2019-02-18T06:56:44.676Z,5.50
2019-02-18T06:59:14.826Z,5.50
2019-02-18T07:01:47.935Z,5.50
2019-02-18T07:04:24.089Z,5.60
2019-02-18T07:06:54.224Z,5.60
2019-02-18T07:09:26.712Z,5.70
2019-02-18T07:11:56.803Z,5.80
2019-02-18T07:14:25.394Z,6.10
2019-02-18T07:16:53.914Z,6.40
2019-02-18T07:19:22.359Z,6.90
2019-02-18T07:21:50.796Z,7.40
2019-02-18T07:24:19.255Z,7.90
2019-02-18T07:26:47.708Z,8.40
2019-02-18T07:29:16.236Z,9.00
2019-02-18T07:31:44.659Z,9.50
2019-02-18T07:34:13.125Z,10.00
2019-02-18T07:36:41.551Z,10.50
2019-02-18T07:39:10.102Z,10.90
2019-02-18T07:41:38.541Z,11.30
2019-02-18T07:44:07.010Z,11.70
2019-02-18T07:46:35.527Z,12.10
2019-02-18T07:49:03.996Z,12.50
2019-02-18T07:51:32.502Z,13.00
2019-02-18T07:54:00.963Z,13.40
2019-02-18T07:56:29.542Z,13.90
2019-02-18T07:58:58.082Z,14.40
2019-02-18T08:01:26.599Z,14.80
2019-02-18T08:03:55.216Z,15.20
2019-02-18T08:06:23.668Z,15.50
2019-02-18T08:08:52.131Z,15.80
2019-02-18T08:11:20.560Z,16.20
2019-02-18T08:13:49.008Z,16.40
2019-02-18T08:16:17.439Z,16.60
2019-02-18T08:18:45.888Z,16.90
2019-02-18T08:21:14.343Z,17.10
2019-02-18T08:23:42.858Z,17.30
2019-02-18T08:26:11.295Z,17.60
2019-02-18T08:28:39.729Z,17.80
2019-02-18T08:31:08.179Z,18.00
2019-02-18T08:33:36.621Z,18.20
2019-02-18T08:36:05.146Z,18.50
2019-02-18T08:38:33.572Z,18.80
2019-02-18T08:41:02.089Z,19.30
2019-02-18T08:43:30.547Z,19.70
2019-02-18T08:45:59.002Z,20.20
2019-02-18T08:48:27.440Z,20.50
2019-02-18T08:50:55.912Z,20.90
2019-02-18T08:53:24.360Z,21.30
2019-02-18T08:55:52.996Z,21.60
2019-02-18T08:58:21.435Z,21.90
2019-02-18T09:00:49.916Z,22.10
2019-02-18T09:03:18.437Z,22.30
2019-02-18T09:05:46.900Z,22.50
2019-02-18T09:08:15.334Z,22.70
2019-02-18T09:10:43.812Z,23.00
2019-02-18T09:13:12.375Z,23.20
2019-02-18T09:15:40.846Z,23.40
2019-02-18T09:18:09.266Z,23.60
2019-02-18T09:20:37.907Z,23.80
2019-02-18T09:23:07.988Z,24.00
2019-02-18T09:25:44.183Z,24.00
2019-02-18T09:28:12.702Z,24.20
2019-02-18T09:30:42.840Z,24.10
2019-02-18T09:33:11.270Z,24.10
2019-02-18T09:35:39.715Z,24.10
2019-02-18T09:38:08.175Z,24.10
2019-02-18T09:40:44.195Z,24.10
2019-02-18T09:43:06.788Z,24.20
2019-02-18T09:45:47.568Z,24.30
2019-02-18T09:48:16.024Z,24.40
2019-02-18T09:50:44.507Z,24.50
2019-02-18T09:53:13.054Z,24.60
2019-02-18T09:55:41.567Z,24.70
2019-02-18T09:58:10.020Z,24.80
2019-02-18T10:00:38.535Z,25.00
2019-02-18T10:03:06.983Z,25.10
2019-02-18T10:05:35.453Z,25.10
2019-02-18T10:08:04.044Z,25.00
2019-02-18T10:10:32.458Z,24.90
2019-02-18T10:13:00.927Z,24.70
2019-02-18T10:15:29.356Z,24.60
2019-02-18T10:17:57.902Z,24.60
2019-02-18T10:20:26.331Z,24.70
2019-02-18T10:22:54.793Z,24.70
2019-02-18T10:25:23.231Z,24.70
2019-02-18T10:27:51.700Z,24.90
2019-02-18T10:30:20.806Z,25.10
2019-02-18T10:32:49.346Z,25.20
2019-02-18T10:35:17.785Z,25.30
2019-02-18T10:37:54.817Z,25.60
2019-02-18T10:40:16.409Z,25.70
2019-02-18T10:42:45.101Z,25.90
2019-02-18T10:45:13.811Z,25.90
2019-02-18T10:47:42.394Z,25.90
2019-02-18T10:50:11.824Z,26.00
2019-02-18T10:52:40.341Z,25.80
2019-02-18T10:55:12.365Z,25.40
2019-02-18T10:57:41.176Z,25.20
2019-02-18T11:00:16.802Z,24.90
2019-02-18T11:02:45.275Z,24.80
2019-02-18T11:05:13.941Z,24.80
2019-02-18T11:07:42.379Z,24.80
2019-02-18T11:10:13.352Z,24.80
2019-02-18T11:12:41.857Z,24.60
2019-02-18T11:15:13.121Z,24.50
2019-02-18T11:17:42.013Z,24.70
2019-02-18T11:20:14.114Z,25.00
2019-02-18T11:22:42.626Z,25.20
2019-02-18T11:25:12.568Z,25.50
2019-02-18T11:27:41.044Z,25.90
2019-02-18T11:30:15.142Z,26.50
2019-02-18T11:32:43.806Z,27.10
2019-02-18T11:35:12.547Z,27.80
2019-02-18T11:37:41.084Z,28.30
2019-02-18T11:40:17.315Z,28.90
2019-02-18T11:42:45.987Z,29.30
2019-02-18T11:45:15.871Z,29.40
2019-02-18T11:47:44.405Z,29.40
2019-02-18T11:50:14.770Z,29.50
2019-02-18T11:52:43.319Z,29.60
2019-02-18T11:55:13.067Z,29.80
2019-02-18T11:57:41.905Z,30.00
2019-02-18T12:00:17.224Z,30.30
2019-02-18T12:02:45.952Z,30.70
2019-02-18T12:05:14.795Z,31.00
2019-02-18T12:07:43.327Z,31.20
2019-02-18T12:10:13.011Z,31.40
2019-02-18T12:12:41.893Z,31.40
2019-02-18T12:15:13.339Z,31.40
2019-02-18T12:17:41.844Z,31.40
2019-02-18T12:20:12.967Z,31.50
2019-02-18T12:22:41.485Z,31.40
2019-02-18T12:25:11.013Z,31.60
2019-02-18T12:27:39.923Z,31.90
2019-02-18T12:30:12.889Z,32.10
2019-02-18T12:32:41.408Z,32.20
2019-02-18T12:35:10.175Z,32.10
2019-02-18T12:37:38.763Z,31.90
2019-02-18T12:40:10.432Z,31.70
2019-02-18T12:42:39.016Z,31.80
2019-02-18T12:45:10.335Z,32.00
2019-02-18T12:47:38.846Z,32.20
2019-02-18T12:50:10.017Z,32.40
2019-02-18T12:52:38.675Z,32.60
2019-02-18T12:55:10.969Z,32.90
2019-02-18T12:57:39.781Z,33.20
2019-02-18T13:00:12.392Z,33.50
2019-02-18T13:02:44.106Z,33.70
2019-02-18T13:05:11.360Z,33.80
2019-02-18T13:07:39.929Z,34.10
2019-02-18T13:10:10.475Z,34.40
2019-02-18T13:12:39.039Z,34.70
2019-02-18T13:15:18.267Z,34.80
2019-02-18T13:17:46.887Z,34.90
2019-02-18T13:20:15.411Z,34.40
2019-02-18T13:22:43.924Z,33.60
2019-02-18T13:25:12.809Z,32.90
2019-02-18T13:27:41.306Z,32.50
2019-02-18T13:30:18.452Z,32.10
2019-02-18T13:32:46.960Z,31.90
2019-02-18T13:35:15.645Z,31.60
2019-02-18T13:37:44.151Z,31.40
2019-02-18T13:40:15.874Z,31.20
2019-02-18T13:42:44.789Z,31.30
2019-02-18T13:45:13.453Z,31.50
2019-02-18T13:47:42.053Z,31.50
2019-02-18T13:50:14.113Z,31.70
2019-02-18T13:52:42.639Z,31.80
2019-02-18T13:55:12.507Z,31.80
2019-02-18T13:57:41.492Z,31.40
2019-02-18T14:00:21.125Z,31.10
2019-02-18T14:02:50.814Z,30.40
2019-02-18T14:05:20.966Z,30.20
2019-02-18T14:07:49.596Z,30.20
2019-02-18T14:10:19.145Z,30.20
2019-02-18T14:12:47.852Z,30.30
2019-02-18T14:15:16.904Z,30.30
2019-02-18T14:17:45.436Z,30.40
2019-02-18T14:20:14.907Z,30.50
2019-02-18T14:22:43.519Z,30.60
2019-02-18T14:25:12.686Z,30.60
2019-02-18T14:27:41.137Z,30.60
2019-02-18T14:30:15.211Z,30.40
2019-02-18T14:32:43.819Z,30.30
2019-02-18T14:35:12.403Z,30.10
2019-02-18T14:37:40.947Z,29.90
2019-02-18T14:40:11.467Z,29.70
2019-02-18T14:42:40.005Z,29.40
2019-02-18T14:45:09.575Z,29.10
2019-02-18T14:47:38.371Z,28.80
2019-02-18T14:50:09.422Z,28.40
2019-02-18T14:52:38.095Z,27.60
2019-02-18T14:55:08.559Z,27.00
2019-02-18T14:57:37.190Z,26.50
2019-02-18T15:00:20.672Z,25.90
2019-02-18T15:02:50.150Z,25.10
2019-02-18T15:05:18.593Z,24.60
2019-02-18T15:07:47.127Z,24.20
2019-02-18T15:10:16.182Z,24.00
2019-02-18T15:12:44.721Z,23.60
2019-02-18T15:15:13.375Z,23.40
2019-02-18T15:17:41.907Z,23.00
2019-02-18T15:20:11.606Z,22.60
2019-02-18T15:22:40.705Z,22.00
2019-02-18T15:25:10.651Z,21.30
2019-02-18T15:27:39.350Z,20.70
2019-02-18T15:30:11.378Z,20.10
2019-02-18T15:32:39.925Z,19.80
2019-02-18T15:35:08.598Z,19.50
2019-02-18T15:37:38.091Z,19.40
2019-02-18T15:40:11.951Z,19.20
2019-02-18T15:42:42.599Z,19.10
2019-02-18T15:45:10.808Z,18.90
2019-02-18T15:47:39.402Z,18.80
2019-02-18T15:50:10.738Z,18.80
2019-02-18T15:52:39.270Z,18.80
2019-02-18T15:55:08.749Z,18.70
2019-02-18T15:57:37.659Z,18.80
2019-02-18T16:00:09.244Z,18.70
2019-02-18T16:02:37.787Z,18.70
2019-02-18T16:05:06.583Z,18.60
2019-02-18T16:07:35.087Z,18.50
2019-02-18T16:10:05.260Z,18.50
2019-02-18T16:12:33.771Z,18.50
2019-02-18T16:15:02.300Z,18.40
2019-02-18T16:17:30.811Z,18.40
2019-02-18T16:19:59.751Z,18.40
2019-02-18T16:22:28.385Z,18.50
2019-02-18T16:24:56.929Z,18.30
2019-02-18T16:27:25.369Z,18.10
2019-02-18T16:29:53.897Z,18.00
2019-02-18T16:32:22.426Z,18.00
2019-02-18T16:34:51.243Z,17.90
2019-02-18T16:37:20.059Z,17.80
2019-02-18T16:39:48.627Z,17.80
2019-02-18T16:42:17.122Z,17.80
2019-02-18T16:44:45.580Z,17.70
2019-02-18T16:47:14.090Z,17.70
2019-02-18T16:49:42.548Z,17.60
2019-02-18T16:52:12.564Z,17.60
2019-02-18T16:54:41.555Z,17.60
2019-02-18T16:57:09.992Z,17.40
2019-02-18T16:59:39.361Z,17.20
2019-02-18T17:02:07.942Z,17.00
2019-02-18T17:04:36.758Z,16.80
2019-02-18T17:07:05.667Z,16.70
2019-02-18T17:09:34.119Z,16.50
2019-02-18T17:12:02.628Z,16.40
2019-02-18T17:14:31.180Z,16.20
2019-02-18T17:16:59.699Z,16.10
2019-02-18T17:19:28.172Z,16.10
2019-02-18T17:21:56.694Z,16.00
2019-02-18T17:24:25.292Z,16.00
2019-02-18T17:26:53.802Z,16.00
2019-02-18T17:29:22.332Z,16.00
2019-02-18T17:31:50.856Z,16.00
2019-02-18T17:34:19.378Z,15.90
2019-02-18T17:36:47.823Z,15.80
2019-02-18T17:39:16.688Z,15.80
2019-02-18T17:41:45.199Z,15.70
2019-02-18T17:44:19.936Z,15.60
2019-02-18T17:46:43.825Z,15.30
2019-02-18T17:49:12.261Z,15.10
2019-02-18T17:51:40.788Z,15.00
2019-02-18T17:54:09.371Z,15.00
2019-02-18T17:56:37.909Z,14.90
2019-02-18T17:59:06.436Z,15.00
2019-02-18T18:01:34.979Z,15.10
2019-02-18T18:04:03.479Z,15.20
2019-02-18T18:06:31.939Z,15.30
2019-02-18T18:09:00.646Z,15.30
2019-02-18T18:11:29.504Z,15.40
2019-02-18T18:13:58.091Z,15.40
2019-02-18T18:16:28.161Z,15.50
2019-02-18T18:18:56.762Z,15.50
2019-02-18T18:21:25.311Z,15.50
2019-02-18T18:23:53.856Z,15.50
2019-02-18T18:26:22.769Z,15.50
2019-02-18T18:28:51.315Z,15.60
2019-02-18T18:31:19.837Z,15.60
2019-02-18T18:33:48.340Z,15.40
2019-02-18T18:36:16.803Z,15.20
2019-02-18T18:38:45.309Z,15.20
2019-02-18T18:41:13.755Z,15.10
2019-02-18T18:43:42.196Z,15.10
2019-02-18T18:46:10.817Z,15.10
2019-02-18T18:48:39.628Z,15.00
2019-02-18T18:51:08.222Z,14.90
2019-02-18T18:53:36.655Z,14.90
2019-02-18T18:56:05.183Z,14.80
2019-02-18T18:58:33.629Z,14.70
2019-02-18T19:01:02.079Z,14.60
2019-02-18T19:03:30.610Z,14.40
2019-02-18T19:05:59.073Z,14.40
2019-02-18T19:08:27.533Z,14.30
2019-02-18T19:10:56.247Z,14.30
2019-02-18T19:13:24.699Z,14.20
2019-02-18T19:15:53.157Z,14.10
2019-02-18T19:18:21.925Z,14.10
2019-02-18T19:20:50.389Z,14.00
2019-02-18T19:23:18.933Z,14.00
2019-02-18T19:25:47.384Z,13.90
2019-02-18T19:28:15.997Z,13.80
2019-02-18T19:30:44.503Z,13.80
2019-02-18T19:33:12.959Z,13.80
2019-02-18T19:35:41.387Z,13.70
2019-02-18T19:38:09.865Z,13.50
2019-02-18T19:40:38.373Z,13.40
2019-02-18T19:43:07.294Z,13.10
2019-02-18T19:45:35.728Z,12.90
2019-02-18T19:48:04.188Z,12.70
2019-02-18T19:50:32.645Z,12.70
2019-02-18T19:53:01.087Z,12.60
2019-02-18T19:55:29.528Z,12.60
2019-02-18T19:57:58.508Z,12.60
2019-02-18T20:00:27.003Z,12.70
2019-02-18T20:02:55.465Z,12.70
2019-02-18T20:05:23.907Z,12.70
2019-02-18T20:07:52.362Z,12.70
2019-02-18T20:10:20.880Z,12.60
2019-02-18T20:12:49.338Z,12.50
2019-02-18T20:15:17.792Z,12.40
2019-02-18T20:17:46.239Z,12.30
2019-02-18T20:20:16.117Z,12.30
2019-02-18T20:22:44.729Z,12.20
2019-02-18T20:25:13.767Z,12.20
2019-02-18T20:27:42.228Z,12.20
2019-02-18T20:30:13.364Z,12.30
2019-02-18T20:32:41.892Z,12.40
2019-02-18T20:35:11.158Z,12.40
2019-02-18T20:37:39.685Z,12.50
2019-02-18T20:40:09.851Z,12.50
2019-02-18T20:42:38.948Z,12.60
2019-02-18T20:45:10.496Z,12.60
2019-02-18T20:47:38.959Z,12.70
2019-02-18T20:50:10.162Z,12.70
2019-02-18T20:52:38.689Z,12.80
2019-02-18T20:55:09.573Z,12.80
2019-02-18T20:57:38.506Z,12.90
2019-02-18T21:00:11.707Z,12.90
2019-02-18T21:02:40.135Z,13.00
2019-02-18T21:05:08.603Z,13.00
2019-02-18T21:07:37.047Z,12.90
2019-02-18T21:10:08.824Z,12.80
2019-02-18T21:12:37.291Z,12.70
2019-02-18T21:15:07.036Z,12.60
2019-02-18T21:17:35.623Z,12.60
2019-02-18T21:20:06.203Z,12.60
2019-02-18T21:22:34.666Z,12.70
2019-02-18T21:25:03.735Z,12.70
2019-02-18T21:27:32.172Z,12.70
2019-02-18T21:30:00.897Z,12.80
2019-02-18T21:32:29.401Z,12.80
2019-02-18T21:34:57.865Z,12.90
2019-02-18T21:37:26.298Z,12.90
2019-02-18T21:39:54.752Z,12.90
2019-02-18T21:42:23.223Z,12.80
2019-02-18T21:44:51.673Z,12.80
2019-02-18T21:47:20.099Z,12.80
2019-02-18T21:49:48.558Z,12.80
2019-02-18T21:52:17.053Z,12.70
2019-02-18T21:54:45.554Z,12.60
2019-02-18T21:57:14.219Z,12.60
2019-02-18T21:59:42.673Z,12.70
2019-02-18T22:02:11.113Z,12.70
2019-02-18T22:04:39.560Z,12.70
2019-02-18T22:07:08.000Z,12.60
2019-02-18T22:09:36.451Z,12.60
2019-02-18T22:12:04.890Z,12.50
2019-02-18T22:14:35.648Z,12.50
2019-02-18T22:17:03.492Z,12.60
2019-02-18T22:19:31.943Z,12.60
2019-02-18T22:22:00.380Z,12.60
2019-02-18T22:24:28.846Z,12.50
2019-02-18T22:26:57.302Z,12.60
2019-02-18T22:29:26.215Z,12.60
2019-02-18T22:31:54.723Z,12.50
2019-02-18T22:34:23.246Z,12.50
2019-02-18T22:36:51.774Z,12.50
2019-02-18T22:39:20.314Z,12.50
2019-02-18T22:41:48.770Z,12.50
2019-02-18T22:44:17.203Z,12.50
2019-02-18T22:46:46.124Z,12.50
2019-02-18T22:49:14.840Z,12.60
2019-02-18T22:51:43.374Z,12.60
2019-02-18T22:54:11.988Z,12.60
2019-02-18T22:56:40.780Z,12.60
2019-02-18T22:59:09.267Z,12.60
2019-02-18T23:01:39.059Z,12.60
2019-02-18T23:04:07.826Z,12.60
2019-02-18T23:06:36.288Z,12.50
2019-02-18T23:09:07.003Z,12.50
2019-02-18T23:11:35.604Z,12.50
2019-02-18T23:14:04.047Z,12.60
2019-02-18T23:16:32.502Z,12.60
2019-02-18T23:19:00.954Z,12.60
2019-02-18T23:21:29.407Z,12.50
2019-02-18T23:23:57.843Z,12.40
2019-02-18T23:26:26.307Z,12.50
2019-02-18T23:28:54.754Z,12.50
2019-02-18T23:31:23.206Z,12.40
2019-02-18T23:33:51.645Z,12.40
2019-02-18T23:36:20.593Z,12.50
2019-02-18T23:38:49.019Z,12.40
2019-02-18T23:41:17.489Z,12.30
2019-02-18T23:43:45.913Z,12.30
2019-02-18T23:46:14.752Z,12.30
2019-02-18T23:48:43.186Z,12.40
2019-02-18T23:51:11.643Z,12.40
2019-02-18T23:53:40.098Z,12.40
2019-02-18T23:56:08.540Z,12.40
2019-02-18T23:58:36.977Z,12.40
